createdAt,value
2017-09-21T00:00:57.268Z,14.10
2017-09-21T00:03:25.674Z,14.03
2017-09-21T00:05:54.082Z,13.30
2017-09-21T00:08:22.507Z,17.03
2017-09-21T00:10:50.920Z,15.63
2017-09-21T00:13:19.327Z,17.33
2017-09-21T00:15:48.522Z,14.80
2017-09-21T00:18:17.710Z,11.93
2017-09-21T00:20:46.110Z,15.10
2017-09-21T00:23:15.302Z,15.60
2017-09-21T00:25:44.471Z,14.33
2017-09-21T00:28:12.883Z,12.37
2017-09-21T00:30:42.078Z,11.17
2017-09-21T00:33:11.254Z,13.57
2017-09-21T00:35:39.666Z,13.43
2017-09-21T00:38:08.250Z,14.60
2017-09-21T00:40:36.661Z,10.93
2017-09-21T00:43:05.076Z,12.50
2017-09-21T00:45:34.280Z,14.37
2017-09-21T00:48:03.463Z,12.27
2017-09-21T00:50:31.539Z,11.93
2017-09-21T00:53:00.746Z,14.83
2017-09-21T00:55:29.257Z,12.33
2017-09-21T00:57:57.668Z,12.93
2017-09-21T01:00:25.412Z,12.93
2017-09-21T01:02:53.833Z,11.57
2017-09-21T01:05:22.275Z,12.37
2017-09-21T01:07:50.935Z,14.17
2017-09-21T01:10:19.343Z,11.60
2017-09-21T01:12:47.763Z,17.80
2017-09-21T01:15:16.960Z,10.60
2017-09-21T01:17:46.143Z,10.87
2017-09-21T01:20:13.862Z,10.33
2017-09-21T01:22:41.602Z,14.93
2017-09-21T01:25:09.319Z,11.17
2017-09-21T01:27:37.386Z,11.13
2017-09-21T01:30:05.470Z,11.73
2017-09-21T01:32:33.194Z,15.73
2017-09-21T01:35:00.908Z,12.77
2017-09-21T01:37:29.766Z,12.13
2017-09-21T01:39:57.483Z,11.50
2017-09-21T01:42:25.207Z,9.43
2017-09-21T01:44:52.762Z,13.43
2017-09-21T01:47:20.479Z,13.80
2017-09-21T01:49:48.195Z,9.60
2017-09-21T01:52:16.278Z,15.20
2017-09-21T01:54:44.581Z,13.40
2017-09-21T01:57:12.431Z,9.30
2017-09-21T01:59:40.506Z,10.60
2017-09-21T02:02:09.140Z,14.53
2017-09-21T02:04:36.862Z,10.90
2017-09-21T02:07:04.604Z,10.83
2017-09-21T02:09:33.783Z,10.47
2017-09-21T02:12:01.840Z,12.97
2017-09-21T02:14:30.689Z,12.30
2017-09-21T02:16:59.107Z,10.77
2017-09-21T02:19:27.199Z,11.60
2017-09-21T02:21:56.415Z,14.60
2017-09-21T02:24:24.825Z,11.20
2017-09-21T02:26:53.235Z,13.13
2017-09-21T02:29:21.681Z,14.33
2017-09-21T02:31:50.107Z,11.10
2017-09-21T02:34:19.274Z,10.87
2017-09-21T02:36:47.923Z,11.10
2017-09-21T02:39:16.405Z,10.60
2017-09-21T02:41:44.827Z,12.83
2017-09-21T02:44:13.270Z,12.97
2017-09-21T02:46:41.492Z,15.73
2017-09-21T02:49:09.714Z,12.77
2017-09-21T02:51:38.142Z,11.77
2017-09-21T02:54:07.332Z,15.40
2017-09-21T02:56:35.738Z,14.23
2017-09-21T02:59:04.953Z,11.60
2017-09-21T03:01:33.358Z,13.10
2017-09-21T03:04:01.762Z,13.00
2017-09-21T03:06:30.190Z,12.73
2017-09-21T03:08:58.606Z,14.93
2017-09-21T03:11:27.020Z,13.80
2017-09-21T03:13:56.220Z,13.70
2017-09-21T03:16:25.391Z,11.40
2017-09-21T03:18:53.808Z,20.53
2017-09-21T03:21:22.239Z,15.27
2017-09-21T03:23:50.659Z,13.60
2017-09-21T03:26:19.843Z,16.07
2017-09-21T03:28:49.053Z,13.40
2017-09-21T03:31:17.473Z,13.10
2017-09-21T03:33:45.880Z,12.10
2017-09-21T03:36:14.329Z,14.37
2017-09-21T03:38:42.739Z,10.20
2017-09-21T03:41:11.139Z,13.20
2017-09-21T03:43:40.337Z,12.57
2017-09-21T03:46:09.508Z,13.50
2017-09-21T03:48:37.907Z,14.23
2017-09-21T03:51:07.101Z,10.90
2017-09-21T03:53:36.275Z,13.50
2017-09-21T03:56:04.685Z,16.73
2017-09-21T03:58:33.870Z,11.90
2017-09-21T04:01:03.039Z,12.00
2017-09-21T04:03:31.461Z,11.43
2017-09-21T04:05:59.895Z,15.63
2017-09-21T04:08:28.323Z,12.10
2017-09-21T04:10:56.753Z,17.10
2017-09-21T04:13:25.183Z,12.57
2017-09-21T04:15:53.404Z,14.70
2017-09-21T04:18:21.629Z,14.10
2017-09-21T04:20:49.858Z,11.40
2017-09-21T04:23:18.108Z,14.40
2017-09-21T04:25:46.334Z,11.20
2017-09-21T04:28:15.357Z,15.30
2017-09-21T04:30:43.780Z,39.10
2017-09-21T04:33:12.202Z,26.63
2017-09-21T04:35:40.639Z,18.20
2017-09-21T04:38:09.052Z,16.77
2017-09-21T04:40:37.286Z,14.47
2017-09-21T04:43:06.595Z,9.87
2017-09-21T04:45:34.831Z,13.40
2017-09-21T04:48:03.248Z,15.43
2017-09-21T04:50:31.703Z,16.80
2017-09-21T04:53:00.123Z,24.43
2017-09-21T04:55:29.349Z,15.70
2017-09-21T04:57:57.779Z,14.30
2017-09-21T05:00:26.187Z,20.47
2017-09-21T05:02:55.363Z,18.90
2017-09-21T05:05:23.787Z,16.03
2017-09-21T05:07:52.195Z,25.43
2017-09-21T05:10:20.619Z,25.07
2017-09-21T05:12:49.802Z,14.90
2017-09-21T05:15:24.815Z,18.33
2017-09-21T05:17:53.459Z,22.13
2017-09-21T05:20:21.879Z,16.33
2017-09-21T05:22:50.321Z,19.33
2017-09-21T05:25:18.793Z,16.77
2017-09-21T05:27:47.215Z,24.03
2017-09-21T05:30:15.626Z,16.13
2017-09-21T05:32:44.827Z,24.20
2017-09-21T05:35:13.238Z,16.43
2017-09-21T05:37:41.655Z,14.30
2017-09-21T05:40:10.083Z,17.67
2017-09-21T05:42:38.500Z,16.40
2017-09-21T05:45:07.140Z,30.40
2017-09-21T05:47:35.574Z,18.90
2017-09-21T05:50:04.030Z,20.27
2017-09-21T05:52:32.657Z,13.20
2017-09-21T05:55:01.838Z,18.30
2017-09-21T05:57:30.259Z,13.40
2017-09-21T05:59:58.674Z,15.30
2017-09-21T06:02:28.236Z,16.97
2017-09-21T06:04:56.647Z,15.63
2017-09-21T06:07:25.250Z,13.83
2017-09-21T06:09:53.492Z,15.90
2017-09-21T06:12:21.755Z,14.90
2017-09-21T06:14:50.205Z,20.50
2017-09-21T06:17:19.389Z,15.27
2017-09-21T06:19:47.797Z,13.23
2017-09-21T06:22:16.211Z,14.80
2017-09-21T06:24:44.668Z,17.27
2017-09-21T06:27:13.085Z,12.93
2017-09-21T06:29:41.497Z,16.93
2017-09-21T06:32:10.698Z,12.37
2017-09-21T06:34:39.888Z,9.73
2017-09-21T06:37:09.071Z,11.77
2017-09-21T06:39:37.494Z,12.13
2017-09-21T06:42:05.903Z,11.70
2017-09-21T06:44:34.314Z,13.80
2017-09-21T06:47:03.511Z,12.57
2017-09-21T06:49:32.691Z,10.20
2017-09-21T06:52:01.129Z,15.60
2017-09-21T06:54:29.570Z,9.00
2017-09-21T06:56:58.748Z,15.90
2017-09-21T06:59:27.159Z,15.93
2017-09-21T07:01:55.603Z,12.87
2017-09-21T07:04:24.014Z,13.43
2017-09-21T07:06:52.518Z,19.60
2017-09-21T07:09:20.949Z,10.20
2017-09-21T07:11:49.380Z,14.80
2017-09-21T07:14:17.804Z,19.90
2017-09-21T07:16:46.246Z,17.60
2017-09-21T07:19:14.666Z,20.07
2017-09-21T07:21:43.892Z,19.43
2017-09-21T07:24:12.782Z,22.10
2017-09-21T07:26:41.202Z,20.30
2017-09-21T07:29:09.624Z,21.20
2017-09-21T07:31:38.826Z,21.50
2017-09-21T07:34:07.240Z,23.03
2017-09-21T07:36:35.660Z,24.73
2017-09-21T07:39:03.571Z,26.20
2017-09-21T07:41:31.995Z,24.33
2017-09-21T07:44:00.453Z,24.20
2017-09-21T07:46:28.886Z,33.33
2017-09-21T07:48:57.122Z,24.37
2017-09-21T07:51:25.351Z,25.47
2017-09-21T07:53:53.603Z,26.63
2017-09-21T07:56:22.794Z,24.67
2017-09-21T07:58:52.006Z,23.60
2017-09-21T08:01:20.254Z,28.40
2017-09-21T08:03:48.676Z,29.33
2017-09-21T08:06:17.107Z,23.00
2017-09-21T08:08:45.544Z,25.27
2017-09-21T08:11:14.072Z,21.80
2017-09-21T08:13:42.488Z,16.40
2017-09-21T08:16:11.192Z,21.13
2017-09-21T08:18:39.614Z,14.67
2017-09-21T08:21:08.036Z,22.33
2017-09-21T08:23:36.470Z,22.50
2017-09-21T08:26:04.900Z,20.40
2017-09-21T08:28:33.312Z,24.90
2017-09-21T08:31:01.751Z,28.77
2017-09-21T08:33:29.979Z,27.83
2017-09-21T08:35:59.900Z,29.93
2017-09-21T08:38:29.103Z,26.17
2017-09-21T08:40:58.289Z,26.20
2017-09-21T08:43:26.708Z,26.97
2017-09-21T08:45:55.143Z,26.40
2017-09-21T08:48:23.571Z,23.83
2017-09-21T08:50:51.999Z,24.03
2017-09-21T08:53:20.429Z,28.83
2017-09-21T08:55:48.851Z,21.40
2017-09-21T08:58:17.280Z,20.87
2017-09-21T09:00:45.715Z,20.80
2017-09-21T09:03:13.954Z,24.30
2017-09-21T09:05:42.529Z,20.80
2017-09-21T09:08:10.776Z,21.20
2017-09-21T09:10:39.008Z,20.57
2017-09-21T09:13:07.433Z,24.83
2017-09-21T09:15:35.864Z,18.27
2017-09-21T09:18:04.847Z,18.80
2017-09-21T09:20:33.272Z,21.63
2017-09-21T09:23:02.480Z,19.80
2017-09-21T09:25:30.911Z,18.60
2017-09-21T09:27:59.152Z,11.07
2017-09-21T09:30:27.593Z,8.10
2017-09-21T09:32:56.775Z,10.70
2017-09-21T09:35:25.201Z,6.60
2017-09-21T09:37:53.641Z,7.70
2017-09-21T09:40:22.835Z,9.50
2017-09-21T09:42:52.038Z,11.17
2017-09-21T09:45:21.231Z,17.33
2017-09-21T09:47:50.415Z,15.93
2017-09-21T09:50:19.602Z,10.37
2017-09-21T09:52:48.044Z,10.57
2017-09-21T09:55:16.463Z,11.27
2017-09-21T09:57:44.876Z,13.17
2017-09-21T10:00:13.239Z,11.30
2017-09-21T10:02:42.422Z,17.13
2017-09-21T10:05:10.835Z,13.53
2017-09-21T10:07:39.258Z,11.30
2017-09-21T10:10:07.671Z,9.70
2017-09-21T10:12:36.851Z,12.40
2017-09-21T10:15:05.270Z,8.70
2017-09-21T10:17:33.693Z,9.93
2017-09-21T10:20:02.100Z,9.33
2017-09-21T10:22:31.134Z,10.20
2017-09-21T10:24:59.772Z,8.70
2017-09-21T10:27:28.762Z,8.17
2017-09-21T10:29:57.198Z,11.67
2017-09-21T10:32:25.616Z,8.83
2017-09-21T10:34:54.796Z,8.20
2017-09-21T10:37:23.238Z,10.57
2017-09-21T10:39:51.459Z,8.50
2017-09-21T10:42:19.874Z,9.60
2017-09-21T10:44:48.324Z,8.43
2017-09-21T10:47:16.742Z,8.50
2017-09-21T10:49:45.171Z,15.40
2017-09-21T10:52:13.612Z,8.07
2017-09-21T10:54:42.027Z,16.83
2017-09-21T10:57:11.219Z,11.53
2017-09-21T10:59:39.676Z,10.40
2017-09-21T11:02:08.094Z,10.20
2017-09-21T11:04:36.499Z,12.27
2017-09-21T11:07:04.927Z,8.33
2017-09-21T11:09:33.343Z,12.30
2017-09-21T11:12:02.530Z,12.60
2017-09-21T11:14:30.955Z,11.13
2017-09-21T11:16:59.366Z,9.40
2017-09-21T11:19:27.804Z,15.93
2017-09-21T11:21:56.235Z,15.27
2017-09-21T11:24:24.472Z,14.03
2017-09-21T11:26:52.894Z,15.27
2017-09-21T11:29:21.515Z,15.53
2017-09-21T11:31:49.950Z,17.80
2017-09-21T11:34:18.371Z,14.60
2017-09-21T11:36:46.804Z,9.73
2017-09-21T11:39:15.990Z,18.33
2017-09-21T11:41:44.402Z,12.03
2017-09-21T11:44:13.609Z,11.43
2017-09-21T11:46:42.027Z,8.47
2017-09-21T11:49:10.447Z,12.87
2017-09-21T11:51:39.647Z,10.90
2017-09-21T11:54:08.835Z,7.40
2017-09-21T11:56:37.247Z,9.90
2017-09-21T11:59:05.738Z,10.10
2017-09-21T12:01:34.166Z,13.03
2017-09-21T12:04:02.591Z,8.33
2017-09-21T12:06:31.031Z,9.93
2017-09-21T12:09:00.275Z,8.67
2017-09-21T12:11:28.687Z,7.83
2017-09-21T12:13:57.113Z,9.20
2017-09-21T12:16:25.522Z,8.23
2017-09-21T12:18:53.739Z,6.90
2017-09-21T12:21:22.159Z,6.60
2017-09-21T12:23:50.574Z,12.40
2017-09-21T12:26:18.993Z,9.00
2017-09-21T12:28:48.189Z,8.70
2017-09-21T12:31:17.367Z,7.50
2017-09-21T12:33:45.595Z,9.57
2017-09-21T12:36:14.019Z,7.40
2017-09-21T12:38:43.201Z,6.63
2017-09-21T12:41:11.633Z,10.00
2017-09-21T12:43:39.897Z,8.43
2017-09-21T12:46:08.312Z,8.70
2017-09-21T12:48:36.732Z,13.33
2017-09-21T12:51:05.934Z,8.43
2017-09-21T12:53:35.130Z,13.33
2017-09-21T12:56:03.568Z,9.30
2017-09-21T12:58:31.991Z,7.70
2017-09-21T13:01:00.980Z,7.23
2017-09-21T13:03:30.212Z,8.43
2017-09-21T13:05:58.654Z,5.70
2017-09-21T13:08:27.837Z,11.90
2017-09-21T13:10:56.304Z,12.90
2017-09-21T13:13:24.792Z,6.50
2017-09-21T13:15:53.252Z,6.43
2017-09-21T13:18:21.725Z,6.73
2017-09-21T13:20:50.239Z,6.30
2017-09-21T13:23:19.502Z,11.03
2017-09-21T13:25:48.012Z,6.07
2017-09-21T13:28:16.454Z,6.60
2017-09-21T13:30:44.888Z,5.83
2017-09-21T13:33:13.920Z,4.73
2017-09-21T13:35:42.414Z,10.43
2017-09-21T13:38:10.843Z,4.80
2017-09-21T13:40:40.031Z,12.40
2017-09-21T13:43:08.479Z,5.13
2017-09-21T13:45:37.811Z,3.43
2017-09-21T13:48:07.027Z,11.90
2017-09-21T13:50:35.457Z,4.33
2017-09-21T13:53:03.871Z,4.60
2017-09-21T13:55:33.051Z,5.20
2017-09-21T13:58:01.479Z,4.13
2017-09-21T14:00:30.540Z,7.43
2017-09-21T14:02:59.719Z,7.20
2017-09-21T14:05:28.224Z,10.00
2017-09-21T14:07:57.411Z,3.60
2017-09-21T14:10:26.589Z,5.23
2017-09-21T14:12:56.656Z,6.00
2017-09-21T14:15:25.065Z,4.00
2017-09-21T14:17:53.479Z,3.67
2017-09-21T14:20:22.675Z,4.83
2017-09-21T14:22:51.854Z,4.70
2017-09-21T14:25:20.274Z,13.13
2017-09-21T14:27:48.703Z,3.50
2017-09-21T14:30:17.150Z,3.20
2017-09-21T14:32:45.562Z,3.50
2017-09-21T14:35:14.004Z,2.80
2017-09-21T14:37:42.406Z,4.40
2017-09-21T14:40:11.645Z,3.30
2017-09-21T14:42:40.845Z,4.40
2017-09-21T14:45:10.024Z,3.47
2017-09-21T14:47:38.440Z,3.40
2017-09-21T14:50:06.864Z,3.93
2017-09-21T14:52:35.283Z,2.63
2017-09-21T14:55:04.458Z,3.40
2017-09-21T14:57:32.895Z,3.40
2017-09-21T15:00:01.311Z,4.13
2017-09-21T15:02:29.724Z,4.67
2017-09-21T15:04:58.158Z,3.63
2017-09-21T15:07:26.567Z,9.47
2017-09-21T15:09:55.746Z,6.20
2017-09-21T15:12:24.187Z,10.03
2017-09-21T15:14:52.595Z,8.50
2017-09-21T15:17:21.030Z,12.47
2017-09-21T15:19:49.504Z,8.67
2017-09-21T15:22:17.727Z,15.37
2017-09-21T15:24:46.143Z,6.97
2017-09-21T15:27:14.574Z,6.57
2017-09-21T15:29:43.746Z,7.83
2017-09-21T15:32:12.157Z,5.93
2017-09-21T15:34:40.944Z,9.70
2017-09-21T15:37:09.371Z,11.33
2017-09-21T15:39:37.782Z,9.23
2017-09-21T15:42:06.210Z,13.23
2017-09-21T15:44:34.640Z,9.30
2017-09-21T15:47:03.050Z,9.53
2017-09-21T15:49:32.364Z,10.40
2017-09-21T15:52:01.544Z,7.43
2017-09-21T15:54:29.952Z,9.87
2017-09-21T15:56:58.380Z,9.73
2017-09-21T15:59:26.797Z,8.33
2017-09-21T16:01:55.786Z,14.50
2017-09-21T16:04:24.986Z,13.10
2017-09-21T16:06:54.174Z,9.50
2017-09-21T16:09:23.354Z,9.30
2017-09-21T16:11:51.804Z,7.70
2017-09-21T16:14:20.206Z,8.13
2017-09-21T16:16:48.614Z,7.50
2017-09-21T16:19:17.828Z,7.67
2017-09-21T16:21:46.240Z,9.67
2017-09-21T16:24:14.650Z,8.17
2017-09-21T16:26:43.103Z,11.33
2017-09-21T16:29:11.515Z,7.37
2017-09-21T16:31:40.693Z,8.50
2017-09-21T16:34:09.151Z,11.20
2017-09-21T16:36:37.359Z,8.00
2017-09-21T16:39:05.763Z,7.13
2017-09-21T16:41:34.311Z,5.07
2017-09-21T16:44:02.532Z,8.57
2017-09-21T16:46:30.763Z,7.33
2017-09-21T16:48:59.798Z,13.10
2017-09-21T17:14:46.932Z,10.60
2017-09-21T17:17:16.114Z,10.67
2017-09-21T17:19:44.523Z,8.17
2017-09-21T17:22:12.959Z,16.90
2017-09-21T17:24:41.380Z,12.70
2017-09-21T17:27:09.614Z,11.37
2017-09-21T17:29:37.847Z,14.50
2017-09-21T17:32:06.258Z,14.50
2017-09-21T17:34:34.676Z,13.90
2017-09-21T17:37:03.118Z,15.80
2017-09-21T17:39:31.554Z,16.17
2017-09-21T17:41:59.981Z,12.83
2017-09-21T17:44:28.414Z,16.97
2017-09-21T17:46:56.839Z,13.53
2017-09-21T17:49:25.252Z,15.07
2017-09-21T17:51:53.706Z,18.13
2017-09-21T17:54:22.129Z,15.23
2017-09-21T17:56:50.559Z,16.60
2017-09-21T17:59:19.079Z,14.43
2017-09-21T18:01:47.500Z,18.60
2017-09-21T18:04:15.923Z,15.70
2017-09-21T18:06:45.141Z,20.30
2017-09-21T18:09:13.565Z,17.40
2017-09-21T18:11:43.843Z,16.67
2017-09-21T18:14:12.436Z,21.83
2017-09-21T18:16:41.214Z,25.60
2017-09-21T18:19:09.998Z,17.30
2017-09-21T18:21:38.886Z,17.77
2017-09-21T18:24:07.639Z,16.50
2017-09-21T18:26:36.083Z,16.70
2017-09-21T18:29:04.787Z,20.07
2017-09-21T18:31:33.271Z,19.83
2017-09-21T18:34:01.698Z,20.53
2017-09-21T18:36:30.129Z,18.87
2017-09-21T18:38:58.701Z,17.87
2017-09-21T18:41:28.064Z,16.60
2017-09-21T18:43:56.453Z,23.37
2017-09-21T18:46:25.022Z,18.30
2017-09-21T18:48:53.612Z,18.40
2017-09-21T18:51:22.090Z,21.00
2017-09-21T18:53:50.572Z,18.93
2017-09-21T18:56:18.996Z,22.93
2017-09-21T18:58:47.434Z,30.67
2017-09-21T19:01:15.883Z,20.73
2017-09-21T19:03:44.518Z,17.97
2017-09-21T19:06:13.192Z,21.60
2017-09-21T19:08:41.748Z,20.63
2017-09-21T19:11:10.167Z,25.20
2017-09-21T19:13:38.615Z,19.10
2017-09-21T19:16:07.048Z,25.73
2017-09-21T19:18:36.251Z,24.23
2017-09-21T19:21:05.473Z,21.83
2017-09-21T19:23:33.901Z,19.80
2017-09-21T19:26:02.323Z,21.10
2017-09-21T19:28:30.567Z,19.00
2017-09-21T19:30:58.802Z,25.40
2017-09-21T19:33:27.246Z,25.00
2017-09-21T19:35:55.543Z,18.83
2017-09-21T19:38:23.985Z,17.47
2017-09-21T19:40:52.440Z,22.30
2017-09-21T19:43:20.882Z,20.00
2017-09-21T19:45:49.324Z,20.43
2017-09-21T19:48:18.516Z,17.60
2017-09-21T19:50:47.726Z,22.33
2017-09-21T19:53:16.189Z,20.40
2017-09-21T19:55:45.386Z,18.70
2017-09-21T19:58:14.404Z,21.23
2017-09-21T20:00:42.840Z,22.50
2017-09-21T20:03:11.935Z,18.27
2017-09-21T20:05:41.181Z,22.37
2017-09-21T20:08:09.606Z,25.40
2017-09-21T20:10:38.024Z,23.70
2017-09-21T20:13:07.238Z,20.70
2017-09-21T20:15:35.676Z,23.77
2017-09-21T20:18:04.120Z,21.60
2017-09-21T20:20:32.561Z,21.27
2017-09-21T20:23:01.010Z,22.50
2017-09-21T20:25:29.436Z,24.80
2017-09-21T20:27:57.899Z,20.53
2017-09-21T20:30:26.326Z,21.50
2017-09-21T20:32:54.753Z,20.97
2017-09-21T20:35:23.199Z,22.27
2017-09-21T20:37:52.403Z,22.37
2017-09-21T20:40:21.621Z,23.67
2017-09-21T20:42:51.155Z,22.30
2017-09-21T20:45:19.644Z,20.83
2017-09-21T20:47:48.070Z,24.30
2017-09-21T20:50:17.070Z,19.87
2017-09-21T20:52:46.268Z,26.30
2017-09-21T20:55:15.467Z,19.20
2017-09-21T20:57:44.707Z,18.30
2017-09-21T21:00:13.120Z,23.63
2017-09-21T21:02:41.531Z,23.80
2017-09-21T21:05:09.979Z,23.50
2017-09-21T21:07:38.398Z,26.80
2017-09-21T21:10:06.881Z,26.17
2017-09-21T21:12:35.337Z,27.37
2017-09-21T21:15:04.511Z,24.40
2017-09-21T21:17:32.945Z,28.73
2017-09-21T21:20:01.398Z,29.30
2017-09-21T21:22:30.605Z,29.80
2017-09-21T21:24:59.023Z,21.90
2017-09-21T21:27:27.280Z,22.13
2017-09-21T21:29:55.695Z,28.37
2017-09-21T21:32:24.136Z,27.27
2017-09-21T21:34:52.572Z,29.27
2017-09-21T21:37:21.748Z,29.27
2017-09-21T21:39:50.011Z,28.27
2017-09-21T21:42:18.460Z,25.77
2017-09-21T21:44:46.876Z,29.40
2017-09-21T21:47:15.295Z,27.97
2017-09-21T21:49:43.721Z,24.20
2017-09-21T21:52:12.160Z,24.90
2017-09-21T21:54:40.575Z,28.40
2017-09-21T21:57:09.017Z,28.50
2017-09-21T21:59:37.431Z,24.27
2017-09-21T22:02:05.862Z,21.50
2017-09-21T22:04:35.081Z,30.67
2017-09-21T22:07:03.499Z,24.53
2017-09-21T22:09:31.934Z,32.77
2017-09-21T22:12:00.376Z,26.57
2017-09-21T22:14:28.799Z,23.03
2017-09-21T22:16:57.217Z,24.13
2017-09-21T22:19:25.654Z,24.90
2017-09-21T22:21:54.074Z,29.50
2017-09-21T22:24:22.494Z,26.67
2017-09-21T22:26:50.936Z,27.43
2017-09-21T22:29:19.361Z,24.53
2017-09-21T22:31:47.884Z,28.53
2017-09-21T22:34:16.950Z,22.80
2017-09-21T22:36:46.168Z,27.70
2017-09-21T22:39:14.584Z,21.03
2017-09-21T22:41:43.116Z,24.43
2017-09-21T22:44:12.099Z,25.97
2017-09-21T22:46:40.524Z,24.73
2017-09-21T22:49:08.949Z,22.33
2017-09-21T22:51:37.367Z,26.10
2017-09-21T22:54:06.620Z,25.27
2017-09-21T22:56:35.276Z,24.37
2017-09-21T22:59:04.459Z,23.80
2017-09-21T23:01:32.877Z,23.60
2017-09-21T23:04:01.303Z,27.33
2017-09-21T23:06:29.719Z,28.17
2017-09-21T23:08:58.902Z,23.57
2017-09-21T23:11:28.103Z,28.00
2017-09-21T23:13:57.283Z,26.63
2017-09-21T23:16:25.711Z,27.43
2017-09-21T23:18:54.151Z,24.90
2017-09-21T23:21:22.558Z,26.37
2017-09-21T23:23:51.014Z,25.60
2017-09-21T23:26:20.218Z,25.93
2017-09-21T23:28:49.403Z,28.47
2017-09-21T23:31:18.592Z,27.50
2017-09-21T23:33:47.787Z,25.33
2017-09-21T23:36:16.230Z,26.63
2017-09-21T23:38:44.642Z,29.73
2017-09-21T23:41:13.071Z,29.40
2017-09-21T23:43:41.478Z,30.80
2017-09-21T23:46:09.891Z,26.40
2017-09-21T23:48:39.082Z,29.97
2017-09-21T23:51:07.305Z,30.53
2017-09-21T23:53:35.719Z,32.00
2017-09-21T23:56:04.158Z,34.73
2017-09-21T23:58:32.570Z,30.13
